Time;durP1;ratioP1;P1;durP2;ratioP2;P2;SDS_P1;SDS_P2;PMS_P1;PMS_P2;Temp;Humidity;BMP_temperature;BMP_pressure;BME280_temperature;BME280_humidity;BME280_pressure;Samples;Min_cycle;Max_cycle;Signal;HPM_P1;HPM_P2
2024/03/22 00:00:23;;;;;;;3.80;3.50;;;;;;;;;;6244372;22;20173;-48
2024/03/22 00:02:52;;;;;;;4.82;4.20;;;;;;;;;;6243696;22;20259;-48
2024/03/22 00:05:21;;;;;;;5.15;4.53;;;;;;;;;;6244711;22;20503;-49
2024/03/22 00:07:48;;;;;;;4.70;4.30;;;;;;;;;;6244608;23;20536;-47
2024/03/22 00:10:15;;;;;;;4.63;4.22;;;;;;;;;;6244031;22;20179;-48
2024/03/22 00:12:42;;;;;;;4.78;4.30;;;;;;;;;;6244032;22;20212;-49
2024/03/22 00:15:09;;;;;;;3.83;3.53;;;;;;;;;;6244214;22;20195;-48
2024/03/22 00:17:36;;;;;;;4.80;3.97;;;;;;;;;;6244218;22;20193;-47
2024/03/22 00:20:06;;;;;;;5.93;4.65;;;;;;;;;;6244474;22;20173;-48
2024/03/22 00:22:33;;;;;;;4.93;4.43;;;;;;;;;;6244080;22;20181;-49
2024/03/22 00:25:00;;;;;;;4.75;4.35;;;;;;;;;;6244650;23;20511;-49
2024/03/22 00:27:27;;;;;;;5.45;4.20;;;;;;;;;;6243944;22;20200;-49
2024/03/22 00:29:53;;;;;;;4.80;4.30;;;;;;;;;;6244455;22;20183;-50
2024/03/22 00:32:21;;;;;;;4.18;3.88;;;;;;;;;;6243702;22;20180;-49
2024/03/22 00:34:47;;;;;;;4.75;4.35;;;;;;;;;;6244098;22;20512;-48
2024/03/22 00:37:16;;;;;;;4.07;3.78;;;;;;;;;;6243839;22;20493;-48
2024/03/22 00:39:43;;;;;;;4.43;4.05;;;;;;;;;;6243631;22;20173;-48
2024/03/22 00:42:10;;;;;;;4.70;4.20;;;;;;;;;;6243649;22;20173;-48
2024/03/22 00:44:37;;;;;;;5.10;4.53;;;;;;;;;;6244026;22;20499;-48
2024/03/22 00:47:05;;;;;;;4.32;3.92;;;;;;;;;;6243762;22;20633;-50
2024/03/22 00:49:32;;;;;;;4.25;3.95;;;;;;;;;;6244557;23;20204;-49
2024/03/22 00:51:59;;;;;;;4.82;4.43;;;;;;;;;;6244263;22;20625;-47
2024/03/22 00:54:27;;;;;;;4.70;4.22;;;;;;;;;;6243770;22;20264;-51
2024/03/22 00:56:54;;;;;;;4.53;4.13;;;;;;;;;;6243337;22;20173;-50
2024/03/22 00:59:21;;;;;;;4.60;4.18;;;;;;;;;;6243359;22;20201;-49
2024/03/22 01:01:49;;;;;;;5.88;5.03;;;;;;;;;;6244244;22;20195;-53
2024/03/22 01:04:15;;;;;;;6.15;5.32;;;;;;;;;;6244116;22;20195;-49
2024/03/22 01:06:43;;;;;;;5.18;4.50;;;;;;;;;;6244016;22;20177;-48
2024/03/22 01:09:09;;;;;;;5.00;4.35;;;;;;;;;;6243241;22;20207;-52
2024/03/22 01:11:38;;;;;;;7.55;5.05;;;;;;;;;;6243687;22;20205;-47
2024/03/22 01:14:04;;;;;;;7.15;5.80;;;;;;;;;;6243675;22;20183;-48
2024/03/22 01:16:32;;;;;;;6.65;6.05;;;;;;;;;;6243171;22;20173;-47
2024/03/22 01:18:58;;;;;;;5.78;5.20;;;;;;;;;;6243629;22;20189;-49
2024/03/22 01:21:26;;;;;;;6.30;5.70;;;;;;;;;;6243186;22;20176;-48
2024/03/22 01:23:53;;;;;;;6.28;5.68;;;;;;;;;;6243908;22;20176;-50
2024/03/22 01:26:20;;;;;;;7.53;5.57;;;;;;;;;;6243692;22;20173;-48
2024/03/22 01:28:48;;;;;;;6.80;6.20;;;;;;;;;;6243589;22;20193;-51
2024/03/22 01:31:16;;;;;;;5.30;4.80;;;;;;;;;;6243690;22;20173;-48
2024/03/22 01:33:42;;;;;;;5.25;4.75;;;;;;;;;;6243886;22;20185;-48
2024/03/22 01:36:09;;;;;;;8.60;6.63;;;;;;;;;;6243359;22;20260;-48
2024/03/22 01:38:36;;;;;;;6.78;5.82;;;;;;;;;;6243400;22;20188;-48
2024/03/22 01:41:03;;;;;;;5.60;4.53;;;;;;;;;;6243436;22;20352;-47
2024/03/22 01:43:30;;;;;;;6.28;5.68;;;;;;;;;;6243854;22;20184;-50
2024/03/22 01:45:58;;;;;;;10.07;5.15;;;;;;;;;;6242956;22;20180;-49
2024/03/22 01:48:25;;;;;;;7.88;6.72;;;;;;;;;;6243052;22;20201;-47
2024/03/22 01:50:53;;;;;;;7.40;6.50;;;;;;;;;;6243724;22;20252;-47
2024/03/22 01:53:21;;;;;;;5.80;5.20;;;;;;;;;;6243596;23;20239;-49
2024/03/22 01:55:49;;;;;;;6.28;5.53;;;;;;;;;;6244287;22;20162;-49
2024/03/22 01:58:15;;;;;;;6.35;5.72;;;;;;;;;;6243882;22;20196;-49
2024/03/22 02:00:42;;;;;;;5.90;5.38;;;;;;;;;;6242986;22;20180;-47
2024/03/22 02:03:10;;;;;;;6.35;5.75;;;;;;;;;;6243775;22;20210;-48
2024/03/22 02:05:38;;;;;;;6.22;5.63;;;;;;;;;;6243495;22;20224;-48
2024/03/22 02:08:05;;;;;;;6.47;5.10;;;;;;;;;;6243274;22;20211;-51
2024/03/22 02:10:33;;;;;;;5.95;5.45;;;;;;;;;;6244891;22;20255;-48
2024/03/22 02:12:59;;;;;;;4.10;3.70;;;;;;;;;;6245434;22;20183;-48
2024/03/22 02:15:27;;;;;;;5.45;4.95;;;;;;;;;;6245311;22;20173;-48
2024/03/22 02:17:53;;;;;;;5.30;4.13;;;;;;;;;;6244961;22;20211;-51
2024/03/22 02:20:22;;;;;;;4.82;4.38;;;;;;;;;;6244886;22;20187;-48
2024/03/22 02:22:49;;;;;;;4.60;4.20;;;;;;;;;;6244859;22;20195;-48
2024/03/22 02:25:17;;;;;;;4.35;3.95;;;;;;;;;;6245164;22;20173;-49
2024/03/22 02:27:44;;;;;;;6.18;5.60;;;;;;;;;;6245119;22;20197;-50
2024/03/22 02:30:12;;;;;;;6.82;6.13;;;;;;;;;;6245207;22;20193;-49
2024/03/22 02:32:40;;;;;;;5.97;4.78;;;;;;;;;;6245369;22;20173;-51
2024/03/22 02:35:08;;;;;;;7.43;6.57;;;;;;;;;;6245257;23;20173;-47
2024/03/22 02:37:35;;;;;;;6.43;5.88;;;;;;;;;;6244945;22;20197;-49
2024/03/22 02:40:02;;;;;;;6.90;6.18;;;;;;;;;;6245041;22;20248;-52
2024/03/22 02:42:30;;;;;;;6.45;5.85;;;;;;;;;;6245024;22;20659;-50
2024/03/22 02:44:58;;;;;;;6.05;5.45;;;;;;;;;;6244804;22;20518;-49
2024/03/22 02:47:24;;;;;;;7.47;6.65;;;;;;;;;;6244846;22;20203;-48
2024/03/22 02:49:52;;;;;;;6.70;5.95;;;;;;;;;;6245086;22;20216;-47
2024/03/22 02:52:18;;;;;;;10.02;7.53;;;;;;;;;;6244860;22;20179;-47
2024/03/22 02:54:45;;;;;;;6.85;5.95;;;;;;;;;;6244723;22;20181;-52
2024/03/22 02:57:12;;;;;;;7.45;6.38;;;;;;;;;;6244911;22;20173;-55
2024/03/22 02:59:41;;;;;;;4.75;4.35;;;;;;;;;;6244506;22;20169;-50
2024/03/22 03:02:07;;;;;;;6.05;5.45;;;;;;;;;;6244558;22;20255;-52
2024/03/22 03:04:34;;;;;;;10.43;7.80;;;;;;;;;;6244657;22;20185;-49
2024/03/22 03:07:01;;;;;;;8.93;7.60;;;;;;;;;;6244503;22;20626;-53
2024/03/22 03:09:28;;;;;;;7.80;7.00;;;;;;;;;;6243753;22;20681;-53
2024/03/22 03:11:55;;;;;;;8.50;7.45;;;;;;;;;;6243944;22;20197;-51
2024/03/22 03:14:22;;;;;;;7.72;6.93;;;;;;;;;;6244985;22;20181;-50
2024/03/22 03:16:50;;;;;;;7.22;6.53;;;;;;;;;;6244646;22;20173;-52
2024/03/22 03:19:17;;;;;;;6.70;6.10;;;;;;;;;;6244161;22;20272;-51
2024/03/22 03:21:44;;;;;;;6.35;5.75;;;;;;;;;;6243300;22;20252;-51
2024/03/22 03:24:11;;;;;;;7.43;6.63;;;;;;;;;;6244579;22;20512;-51
2024/03/22 03:26:38;;;;;;;5.18;4.70;;;;;;;;;;6244533;22;20177;-52
2024/03/22 03:29:05;;;;;;;5.82;5.30;;;;;;;;;;6244145;22;20209;-49
2024/03/22 03:31:32;;;;;;;5.97;5.28;;;;;;;;;;6244307;22;20173;-49
2024/03/22 03:34:01;;;;;;;5.85;5.25;;;;;;;;;;6244064;22;20180;-50
2024/03/22 03:36:27;;;;;;;6.22;5.63;;;;;;;;;;6244790;22;20181;-52
2024/03/22 03:38:54;;;;;;;5.40;4.85;;;;;;;;;;6243952;22;20268;-54
2024/03/22 03:41:21;;;;;;;5.90;5.30;;;;;;;;;;6244894;22;20824;-52
2024/03/22 03:43:48;;;;;;;6.90;5.97;;;;;;;;;;6243879;22;20179;-53
2024/03/22 03:46:15;;;;;;;6.28;5.53;;;;;;;;;;6244519;22;20625;-50
2024/03/22 03:48:42;;;;;;;8.13;7.32;;;;;;;;;;6244040;22;20208;-57
2024/03/22 03:51:10;;;;;;;7.97;7.18;;;;;;;;;;6244262;22;20173;-49
2024/03/22 03:53:37;;;;;;;6.90;6.30;;;;;;;;;;6243857;22;20208;-49
2024/03/22 03:56:04;;;;;;;5.10;4.60;;;;;;;;;;6244029;22;20183;-52
2024/03/22 03:58:32;;;;;;;8.55;6.63;;;;;;;;;;6244045;22;20528;-49
2024/03/22 04:00:58;;;;;;;8.23;7.30;;;;;;;;;;6244300;22;20169;-49
2024/03/22 04:03:26;;;;;;;5.90;5.28;;;;;;;;;;6243588;22;20187;-51
2024/03/22 04:05:57;;;;;;;6.40;4.82;;;;;;;;;;6244267;22;20649;-51
2024/03/22 04:08:26;;;;;;;6.55;5.85;;;;;;;;;;6244089;22;20197;-50
2024/03/22 04:10:53;;;;;;;7.13;5.85;;;;;;;;;;6244092;22;20197;-51
2024/03/22 04:13:20;;;;;;;7.22;6.45;;;;;;;;;;6243803;22;20169;-51
2024/03/22 04:15:47;;;;;;;7.57;6.53;;;;;;;;;;6243905;22;20255;-53
2024/03/22 04:18:14;;;;;;;8.63;7.75;;;;;;;;;;6243289;22;20193;-52
2024/03/22 04:20:40;;;;;;;9.43;7.90;;;;;;;;;;6244128;22;20645;-51
2024/03/22 04:23:08;;;;;;;9.15;8.25;;;;;;;;;;6243979;22;20181;-50
2024/03/22 04:25:36;;;;;;;8.88;7.47;;;;;;;;;;6244140;22;20528;-49
2024/03/22 04:28:03;;;;;;;10.60;7.90;;;;;;;;;;6244262;22;20225;-51
2024/03/22 04:30:30;;;;;;;10.77;9.73;;;;;;;;;;6243699;22;20196;-49
2024/03/22 04:32:57;;;;;;;8.20;7.18;;;;;;;;;;6243351;22;20576;-54
2024/03/22 04:35:24;;;;;;;7.10;6.03;;;;;;;;;;6244186;22;20638;-49
2024/03/22 04:37:51;;;;;;;6.78;6.07;;;;;;;;;;6243463;22;20667;-51
2024/03/22 04:40:18;;;;;;;8.30;7.18;;;;;;;;;;6244244;22;20169;-53
2024/03/22 04:42:47;;;;;;;7.93;7.10;;;;;;;;;;6243622;22;20694;-51
2024/03/22 04:45:14;;;;;;;6.82;6.22;;;;;;;;;;6244032;22;20257;-54
2024/03/22 04:47:42;;;;;;;7.82;7.00;;;;;;;;;;6243829;22;20199;-50
2024/03/22 04:50:09;;;;;;;6.70;5.85;;;;;;;;;;6244250;23;20589;-51
2024/03/22 04:52:37;;;;;;;8.02;7.13;;;;;;;;;;6243353;22;20225;-50
2024/03/22 04:55:05;;;;;;;12.15;8.80;;;;;;;;;;6243447;22;20185;-48
2024/03/22 04:57:32;;;;;;;13.73;9.82;;;;;;;;;;6240032;22;20272;-53
2024/03/22 05:00:00;;;;;;;9.63;8.52;;;;;;;;;;6241635;22;20169;-53
2024/03/22 05:02:27;;;;;;;11.43;9.30;;;;;;;;;;6242982;22;20183;-50
2024/03/22 05:04:54;;;;;;;9.30;8.32;;;;;;;;;;6243326;22;20173;-54
2024/03/22 05:07:21;;;;;;;14.60;11.75;;;;;;;;;;6243145;22;20207;-54
2024/03/22 05:09:48;;;;;;;14.18;12.27;;;;;;;;;;6243163;22;20493;-55
2024/03/22 05:12:15;;;;;;;15.88;9.15;;;;;;;;;;6243172;22;20227;-49
2024/03/22 05:14:41;;;;;;;11.50;9.95;;;;;;;;;;6243806;22;20477;-51
2024/03/22 05:17:10;;;;;;;10.60;8.60;;;;;;;;;;6243321;22;20181;-53
2024/03/22 05:19:37;;;;;;;9.90;8.35;;;;;;;;;;6243582;22;20652;-51
2024/03/22 05:22:06;;;;;;;8.40;7.38;;;;;;;;;;6243062;22;20183;-49
2024/03/22 05:24:32;;;;;;;11.90;10.52;;;;;;;;;;6243641;22;20181;-48
2024/03/22 05:27:00;;;;;;;10.88;9.40;;;;;;;;;;6242602;22;20177;-51
2024/03/22 05:29:26;;;;;;;10.20;7.85;;;;;;;;;;6242918;22;20183;-49
2024/03/22 05:31:54;;;;;;;8.05;6.90;;;;;;;;;;6242841;22;20183;-51
2024/03/22 05:34:21;;;;;;;7.28;6.55;;;;;;;;;;6243152;22;20173;-49
2024/03/22 05:36:49;;;;;;;7.18;6.47;;;;;;;;;;6243102;22;20262;-49
2024/03/22 05:39:16;;;;;;;9.75;7.57;;;;;;;;;;6243375;22;20205;-49
2024/03/22 05:41:43;;;;;;;11.43;9.18;;;;;;;;;;6243064;22;20173;-49
2024/03/22 05:44:10;;;;;;;10.50;9.35;;;;;;;;;;6243655;22;20184;-48
2024/03/22 05:46:37;;;;;;;11.10;8.10;;;;;;;;;;6244564;22;20183;-48
2024/03/22 05:49:04;;;;;;;12.95;9.45;;;;;;;;;;6245214;22;20193;-53
2024/03/22 05:51:32;;;;;;;11.93;9.80;;;;;;;;;;6245099;22;20203;-53
2024/03/22 05:53:59;;;;;;;15.05;11.75;;;;;;;;;;6244830;22;20181;-54
2024/03/22 05:56:26;;;;;;;15.25;10.95;;;;;;;;;;6244989;22;20208;-53
2024/03/22 05:58:53;;;;;;;14.70;11.02;;;;;;;;;;6244388;22;20267;-52
2024/03/22 06:01:20;;;;;;;15.55;10.77;;;;;;;;;;6244612;22;20256;-52
2024/03/22 06:03:47;;;;;;;13.43;10.23;;;;;;;;;;6245109;22;20180;-55
2024/03/22 06:06:16;;;;;;;14.32;11.50;;;;;;;;;;6245125;22;20232;-52
2024/03/22 06:08:45;;;;;;;14.15;10.10;;;;;;;;;;6245783;22;20193;-49
2024/03/22 06:11:12;;;;;;;12.32;9.95;;;;;;;;;;6245887;22;20204;-49
2024/03/22 06:13:39;;;;;;;14.05;12.00;;;;;;;;;;6245187;22;20172;-49
2024/03/22 06:16:07;;;;;;;14.55;10.38;;;;;;;;;;6244619;22;20187;-53
2024/03/22 06:18:34;;;;;;;13.30;9.50;;;;;;;;;;6245416;22;20225;-48
2024/03/22 06:21:01;;;;;;;15.80;12.15;;;;;;;;;;6245331;22;20173;-52
2024/03/22 06:23:28;;;;;;;15.77;12.15;;;;;;;;;;6244881;22;20173;-49
2024/03/22 06:25:57;;;;;;;17.80;11.90;;;;;;;;;;6244845;22;20177;-49
2024/03/22 06:28:24;;;;;;;14.18;11.07;;;;;;;;;;6245314;22;20193;-51
2024/03/22 06:30:51;;;;;;;16.95;12.70;;;;;;;;;;6245237;22;20523;-49
2024/03/22 06:33:19;;;;;;;13.52;10.43;;;;;;;;;;6245111;22;20173;-50
2024/03/22 06:35:46;;;;;;;13.60;9.65;;;;;;;;;;6244973;22;20177;-49
2024/03/22 06:38:13;;;;;;;13.90;10.55;;;;;;;;;;6245180;22;20272;-50
2024/03/22 06:40:41;;;;;;;13.70;10.55;;;;;;;;;;6244617;22;20196;-49
2024/03/22 06:43:08;;;;;;;14.00;10.85;;;;;;;;;;6244925;22;20180;-52
2024/03/22 06:45:36;;;;;;;13.00;10.75;;;;;;;;;;6245129;22;20188;-52
2024/03/22 06:48:03;;;;;;;8.68;6.97;;;;;;;;;;6244972;22;20717;-50
2024/03/22 06:50:30;;;;;;;12.57;9.45;;;;;;;;;;6244588;22;20661;-50
2024/03/22 06:52:57;;;;;;;10.05;9.05;;;;;;;;;;6244420;22;20192;-52
2024/03/22 06:55:24;;;;;;;12.20;9.57;;;;;;;;;;6244476;22;20177;-50
2024/03/22 06:57:52;;;;;;;12.93;9.90;;;;;;;;;;6243995;22;20204;-50
2024/03/22 07:00:21;;;;;;;12.70;8.85;;;;;;;;;;6245131;23;20180;-49
2024/03/22 07:02:47;;;;;;;10.40;8.48;;;;;;;;;;6244532;22;20177;-50
2024/03/22 07:05:15;;;;;;;11.60;9.43;;;;;;;;;;6244466;22;20658;-53
2024/03/22 07:07:41;;;;;;;9.68;7.70;;;;;;;;;;6243840;22;20200;-49
2024/03/22 07:10:10;;;;;;;13.32;10.00;;;;;;;;;;6244878;22;20640;-50
2024/03/22 07:12:36;;;;;;;11.35;8.80;;;;;;;;;;6244237;22;20673;-49
2024/03/22 07:15:05;;;;;;;12.68;9.40;;;;;;;;;;6244503;22;20192;-50
2024/03/22 07:17:33;;;;;;;11.15;8.75;;;;;;;;;;6244619;23;20189;-51
2024/03/22 07:20:01;;;;;;;10.95;8.50;;;;;;;;;;6244344;22;20251;-49
2024/03/22 07:22:28;;;;;;;9.95;8.75;;;;;;;;;;6244933;23;20765;-49
2024/03/22 07:24:56;;;;;;;14.25;10.77;;;;;;;;;;6244531;22;20184;-50
2024/03/22 07:27:22;;;;;;;12.30;9.57;;;;;;;;;;6244737;22;20193;-49
2024/03/22 07:29:49;;;;;;;13.13;9.95;;;;;;;;;;6244750;22;20180;-54
2024/03/22 07:32:16;;;;;;;13.40;9.25;;;;;;;;;;6244223;22;20280;-48
2024/03/22 07:34:47;;;;;;;15.43;9.20;;;;;;;;;;6244703;22;20189;-54
2024/03/22 07:37:14;;;;;;;11.57;10.05;;;;;;;;;;6244243;22;20211;-50
2024/03/22 07:39:41;;;;;;;9.80;8.25;;;;;;;;;;6243793;22;20666;-53
2024/03/22 07:42:08;;;;;;;14.77;10.52;;;;;;;;;;6243941;22;20660;-49
2024/03/22 07:44:35;;;;;;;11.48;9.07;;;;;;;;;;6244004;22;20196;-50
2024/03/22 07:47:02;;;;;;;17.70;11.32;;;;;;;;;;6244240;22;20179;-50
2024/03/22 07:49:29;;;;;;;14.35;11.43;;;;;;;;;;6244158;22;20177;-54
2024/03/22 07:51:57;;;;;;;11.80;9.85;;;;;;;;;;6243047;22;20680;-49
2024/03/22 07:54:24;;;;;;;16.75;11.45;;;;;;;;;;6243312;22;20529;-49
2024/03/22 07:56:51;;;;;;;14.77;11.65;;;;;;;;;;6243389;22;20173;-49
2024/03/22 07:59:18;;;;;;;13.98;11.00;;;;;;;;;;6243197;22;20197;-51
2024/03/22 08:01:46;;;;;;;14.30;10.68;;;;;;;;;;6243745;22;20169;-53
2024/03/22 08:04:14;;;;;;;16.85;12.85;;;;;;;;;;6244394;22;20177;-53
2024/03/22 08:06:41;;;;;;;16.35;12.63;;;;;;;;;;6243695;22;20177;-52
2024/03/22 08:09:10;;;;;;;14.50;12.02;;;;;;;;;;6243468;22;20259;-50
2024/03/22 08:11:37;;;;;;;15.50;12.25;;;;;;;;;;6243773;22;20230;-52
2024/03/22 08:14:04;;;;;;;16.15;12.45;;;;;;;;;;6243862;22;20485;-53
2024/03/22 08:16:31;;;;;;;13.60;11.43;;;;;;;;;;6243600;22;20205;-51
2024/03/22 08:18:58;;;;;;;15.65;12.93;;;;;;;;;;6243619;22;20523;-49
2024/03/22 08:21:25;;;;;;;13.07;11.05;;;;;;;;;;6243400;22;20255;-51
2024/03/22 08:23:53;;;;;;;11.50;10.23;;;;;;;;;;6243770;22;20179;-52
2024/03/22 08:26:20;;;;;;;15.88;12.30;;;;;;;;;;6243759;22;20513;-52
2024/03/22 08:28:49;;;;;;;14.40;11.93;;;;;;;;;;6243631;22;20199;-51
2024/03/22 08:31:16;;;;;;;15.15;11.30;;;;;;;;;;6243713;22;20225;-54
2024/03/22 08:33:44;;;;;;;15.48;12.57;;;;;;;;;;6243680;22;20180;-49
2024/03/22 08:36:11;;;;;;;12.48;10.07;;;;;;;;;;6243548;22;20181;-50
2024/03/22 08:38:38;;;;;;;11.27;8.95;;;;;;;;;;6243087;22;20197;-52
2024/03/22 08:41:05;;;;;;;13.48;10.27;;;;;;;;;;6243677;22;20647;-53
2024/03/22 08:43:33;;;;;;;10.82;8.55;;;;;;;;;;6243326;22;20173;-52
2024/03/22 08:46:00;;;;;;;11.63;9.30;;;;;;;;;;6243029;22;20183;-52
2024/03/22 08:48:27;;;;;;;11.60;9.55;;;;;;;;;;6242927;22;20622;-49
2024/03/22 08:50:54;;;;;;;9.63;8.52;;;;;;;;;;6243863;22;20172;-53
2024/03/22 08:53:21;;;;;;;9.50;8.50;;;;;;;;;;6243128;22;20201;-49
2024/03/22 08:55:48;;;;;;;15.38;10.82;;;;;;;;;;6243799;22;20493;-52
2024/03/22 08:58:17;;;;;;;13.85;11.02;;;;;;;;;;6243167;22;20854;-50
2024/03/22 09:00:44;;;;;;;11.50;9.18;;;;;;;;;;6244089;22;20177;-53
2024/03/22 09:03:13;;;;;;;12.55;9.40;;;;;;;;;;6242971;22;20238;-49
2024/03/22 09:05:39;;;;;;;14.73;10.25;;;;;;;;;;6243668;22;20291;-54
2024/03/22 09:08:08;;;;;;;11.88;8.70;;;;;;;;;;6243278;22;20193;-54
2024/03/22 09:10:34;;;;;;;11.35;9.18;;;;;;;;;;6243458;22;20177;-53
2024/03/22 09:13:02;;;;;;;13.20;10.57;;;;;;;;;;6242283;22;20276;-51
2024/03/22 09:15:28;;;;;;;12.00;9.73;;;;;;;;;;6243113;22;20173;-51
2024/03/22 09:17:57;;;;;;;12.70;9.80;;;;;;;;;;6243583;22;20228;-54
2024/03/22 09:20:24;;;;;;;11.70;9.25;;;;;;;;;;6243417;22;20545;-49
2024/03/22 09:22:51;;;;;;;10.27;9.18;;;;;;;;;;6243151;22;20694;-49
2024/03/22 09:25:18;;;;;;;9.70;8.52;;;;;;;;;;6243404;22;20177;-50
2024/03/22 09:27:45;;;;;;;9.35;7.25;;;;;;;;;;6243206;22;20206;-49
2024/03/22 09:30:14;;;;;;;8.80;7.53;;;;;;;;;;6243210;22;20179;-51
2024/03/22 09:32:42;;;;;;;10.20;8.63;;;;;;;;;;6242817;22;20271;-51
2024/03/22 09:35:14;;;;;;;10.40;7.68;;;;;;;;;;6243982;22;20173;-49
2024/03/22 09:37:41;;;;;;;10.23;8.15;;;;;;;;;;6243287;23;20201;-51
2024/03/22 09:40:09;;;;;;;9.05;8.15;;;;;;;;;;6243254;22;20183;-48
2024/03/22 09:42:40;;;;;;;16.50;10.90;;;;;;;;;;6242677;22;20205;-53
2024/03/22 09:45:10;;;;;;;9.35;8.38;;;;;;;;;;6243958;22;20161;-52
2024/03/22 09:47:38;;;;;;;8.55;7.65;;;;;;;;;;6243461;23;20193;-51
2024/03/22 09:50:09;;;;;;;9.32;7.68;;;;;;;;;;6243410;22;20177;-54
2024/03/22 09:52:38;;;;;;;11.32;7.97;;;;;;;;;;6243239;22;20247;-52
2024/03/22 09:55:06;;;;;;;9.45;8.10;;;;;;;;;;6243381;23;20181;-51
2024/03/22 09:57:36;;;;;;;11.45;9.20;;;;;;;;;;6242604;22;20200;-52
2024/03/22 10:00:03;;;;;;;9.82;8.40;;;;;;;;;;6243575;23;20577;-52
2024/03/22 10:02:30;;;;;;;7.50;6.80;;;;;;;;;;6242744;22;20173;-52
2024/03/22 10:04:58;;;;;;;10.80;7.53;;;;;;;;;;6243054;22;20512;-52
2024/03/22 10:07:27;;;;;;;8.27;7.38;;;;;;;;;;6242813;22;20673;-49
2024/03/22 10:09:53;;;;;;;9.38;7.72;;;;;;;;;;6242868;22;20256;-51
2024/03/22 10:12:21;;;;;;;9.50;7.85;;;;;;;;;;6242267;22;20275;-53
2024/03/22 10:14:47;;;;;;;12.95;9.15;;;;;;;;;;6243448;22;20490;-52
2024/03/22 10:17:15;;;;;;;11.55;8.77;;;;;;;;;;6242924;22;20602;-49
2024/03/22 10:19:41;;;;;;;11.30;8.63;;;;;;;;;;6242962;22;20177;-52
2024/03/22 10:22:09;;;;;;;9.88;8.02;;;;;;;;;;6242574;22;20181;-54
2024/03/22 10:24:37;;;;;;;8.23;6.60;;;;;;;;;;6242899;22;20179;-51
2024/03/22 10:27:05;;;;;;;8.00;6.40;;;;;;;;;;6243292;22;20250;-53
2024/03/22 10:29:31;;;;;;;7.25;6.50;;;;;;;;;;6243641;23;20177;-53
2024/03/22 10:31:59;;;;;;;9.52;7.03;;;;;;;;;;6243650;22;20630;-54
2024/03/22 10:34:25;;;;;;;11.20;7.60;;;;;;;;;;6245071;22;20177;-49
2024/03/22 10:36:53;;;;;;;9.65;8.65;;;;;;;;;;6244850;22;20173;-53
2024/03/22 10:39:20;;;;;;;7.32;6.60;;;;;;;;;;6244919;22;20642;-49
2024/03/22 10:41:49;;;;;;;7.30;6.20;;;;;;;;;;6245178;22;20634;-50
2024/03/22 10:44:16;;;;;;;8.23;7.22;;;;;;;;;;6244907;22;20255;-50
2024/03/22 10:46:47;;;;;;;9.73;8.73;;;;;;;;;;6245267;23;20483;-48
2024/03/22 10:49:18;;;;;;;9.63;8.40;;;;;;;;;;6245078;22;20193;-51
2024/03/22 10:51:49;;;;;;;8.55;7.68;;;;;;;;;;6245171;23;20211;-48
2024/03/22 10:54:20;;;;;;;8.90;8.00;;;;;;;;;;6244787;23;20203;-52
2024/03/22 10:56:49;;;;;;;11.00;7.75;;;;;;;;;;6244822;22;20173;-49
2024/03/22 10:59:19;;;;;;;11.20;8.27;;;;;;;;;;6244438;22;20528;-49
2024/03/22 11:01:47;;;;;;;6.72;6.13;;;;;;;;;;6244658;22;20248;-48
2024/03/22 11:04:16;;;;;;;8.27;6.53;;;;;;;;;;6244715;22;20169;-54
2024/03/22 11:06:49;;;;;;;7.90;6.70;;;;;;;;;;6244236;22;20177;-53
2024/03/22 11:09:21;;;;;;;10.07;8.00;;;;;;;;;;6245136;23;20658;-53
2024/03/22 11:11:52;;;;;;;6.95;6.25;;;;;;;;;;6244660;22;20555;-53
2024/03/22 11:14:20;;;;;;;6.47;5.05;;;;;;;;;;6244687;23;20188;-50
2024/03/22 11:16:47;;;;;;;7.30;5.85;;;;;;;;;;6245004;23;20702;-52
2024/03/22 11:19:14;;;;;;;4.93;4.45;;;;;;;;;;6244565;22;20584;-54
2024/03/22 11:21:41;;;;;;;8.77;7.18;;;;;;;;;;6244464;22;20179;-49
2024/03/22 11:24:09;;;;;;;9.40;6.43;;;;;;;;;;6243451;22;20176;-50
2024/03/22 11:26:36;;;;;;;7.97;5.00;;;;;;;;;;6244533;23;20177;-50
2024/03/22 11:29:05;;;;;;;5.65;5.15;;;;;;;;;;6243683;22;20201;-50
2024/03/22 11:31:32;;;;;;;8.50;6.07;;;;;;;;;;6244847;22;20176;-49
2024/03/22 11:33:59;;;;;;;5.50;4.95;;;;;;;;;;6244250;22;20193;-48
2024/03/22 11:36:27;;;;;;;6.40;5.18;;;;;;;;;;6244054;22;20663;-48
2024/03/22 11:38:54;;;;;;;7.28;5.40;;;;;;;;;;6244575;22;20228;-55
2024/03/22 11:41:25;;;;;;;5.82;5.25;;;;;;;;;;6244177;22;20649;-49
2024/03/22 11:43:51;;;;;;;4.82;3.92;;;;;;;;;;6244157;23;20231;-49
2024/03/22 11:46:22;;;;;;;5.28;4.78;;;;;;;;;;6244418;22;20553;-53
2024/03/22 11:48:52;;;;;;;4.20;3.80;;;;;;;;;;6244709;23;20602;-53
2024/03/22 11:51:19;;;;;;;4.57;4.05;;;;;;;;;;6243865;22;20246;-53
2024/03/22 11:53:50;;;;;;;4.65;4.18;;;;;;;;;;6243825;22;20196;-51
2024/03/22 11:56:20;;;;;;;3.28;2.97;;;;;;;;;;6244299;22;20560;-51
2024/03/22 11:58:48;;;;;;;5.40;3.70;;;;;;;;;;6243700;23;20200;-49
2024/03/22 12:01:15;;;;;;;5.07;4.55;;;;;;;;;;6244376;22;20177;-51
2024/03/22 12:03:46;;;;;;;3.92;3.17;;;;;;;;;;6244201;22;20181;-49
2024/03/22 12:06:14;;;;;;;5.32;4.93;;;;;;;;;;6244298;23;20196;-49
2024/03/22 12:08:41;;;;;;;2.90;2.70;;;;;;;;;;6243915;22;20197;-52
2024/03/22 12:11:09;;;;;;;4.43;4.03;;;;;;;;;;6243594;22;20247;-49
2024/03/22 12:13:36;;;;;;;5.25;4.35;;;;;;;;;;6243627;22;20201;-50
2024/03/22 12:16:07;;;;;;;5.70;4.25;;;;;;;;;;6243978;22;20176;-52
2024/03/22 12:18:33;;;;;;;3.90;3.00;;;;;;;;;;6244034;22;20234;-49
2024/03/22 12:21:02;;;;;;;3.63;3.22;;;;;;;;;;6243983;22;20177;-48
2024/03/22 12:23:29;;;;;;;3.28;2.97;;;;;;;;;;6244013;23;20180;-52
2024/03/22 12:25:56;;;;;;;3.85;3.17;;;;;;;;;;6244086;22;20644;-52
2024/03/22 12:28:23;;;;;;;3.50;3.15;;;;;;;;;;6243033;22;20546;-53
2024/03/22 12:30:51;;;;;;;4.25;3.85;;;;;;;;;;6243122;22;20185;-52
2024/03/22 12:33:17;;;;;;;3.50;3.20;;;;;;;;;;6243503;22;20219;-52
2024/03/22 12:35:46;;;;;;;4.88;3.50;;;;;;;;;;6244148;22;20256;-52
2024/03/22 12:38:14;;;;;;;3.25;2.95;;;;;;;;;;6243877;23;20204;-53
2024/03/22 12:40:42;;;;;;;2.30;2.10;;;;;;;;;;6243563;22;20184;-53
2024/03/22 12:43:10;;;;;;;2.55;2.05;;;;;;;;;;6243606;22;20176;-50
2024/03/22 12:45:38;;;;;;;2.92;2.33;;;;;;;;;;6244219;23;20257;-53
2024/03/22 12:48:05;;;;;;;3.58;3.28;;;;;;;;;;6243541;22;20528;-49
2024/03/22 12:50:33;;;;;;;2.60;2.25;;;;;;;;;;6243758;22;20177;-49
2024/03/22 12:52:59;;;;;;;2.50;2.30;;;;;;;;;;6243351;22;20231;-49
2024/03/22 12:55:31;;;;;;;2.38;2.17;;;;;;;;;;6243070;22;20177;-49
2024/03/22 12:57:57;;;;;;;1.80;1.70;;;;;;;;;;6243454;23;20732;-50
2024/03/22 13:00:25;;;;;;;2.97;2.67;;;;;;;;;;6243325;22;20187;-52
2024/03/22 13:02:51;;;;;;;2.53;2.33;;;;;;;;;;6243632;22;20177;-51
2024/03/22 13:05:19;;;;;;;3.13;2.72;;;;;;;;;;6243393;22;20176;-49
2024/03/22 13:07:45;;;;;;;2.53;2.33;;;;;;;;;;6242907;22;20200;-54
2024/03/22 13:10:13;;;;;;;3.63;2.75;;;;;;;;;;6243638;22;20173;-54
2024/03/22 13:12:41;;;;;;;3.85;2.53;;;;;;;;;;6242505;22;20177;-49
2024/03/22 13:15:09;;;;;;;3.40;2.67;;;;;;;;;;6242999;22;20193;-51
2024/03/22 13:17:36;;;;;;;4.05;3.15;;;;;;;;;;6243596;22;20193;-48
2024/03/22 13:20:09;;;;;;;3.85;2.80;;;;;;;;;;6243229;22;20173;-50
2024/03/22 13:22:37;;;;;;;3.20;2.92;;;;;;;;;;6243603;23;20158;-53
2024/03/22 13:25:07;;;;;;;4.68;2.72;;;;;;;;;;6243607;22;20626;-52
2024/03/22 13:27:33;;;;;;;3.28;2.97;;;;;;;;;;6243425;23;20422;-51
2024/03/22 13:30:03;;;;;;;3.30;3.00;;;;;;;;;;6243610;22;20180;-52
2024/03/22 13:32:29;;;;;;;2.90;2.22;;;;;;;;;;6243636;23;20183;-50
2024/03/22 13:34:57;;;;;;;3.97;3.28;;;;;;;;;;6243056;22;20192;-51
2024/03/22 13:37:23;;;;;;;2.67;2.40;;;;;;;;;;6243442;22;20197;-51
2024/03/22 13:39:51;;;;;;;2.58;2.38;;;;;;;;;;6243670;22;20518;-52
2024/03/22 13:42:18;;;;;;;2.38;2.17;;;;;;;;;;6242694;22;20173;-54
2024/03/22 13:44:45;;;;;;;3.15;2.90;;;;;;;;;;6243258;22;20173;-53
2024/03/22 13:47:13;;;;;;;4.32;2.38;;;;;;;;;;6243510;22;20173;-52
2024/03/22 13:49:42;;;;;;;2.78;1.73;;;;;;;;;;6243374;22;20184;-54
2024/03/22 13:52:09;;;;;;;1.83;1.70;;;;;;;;;;6243436;22;20179;-53
2024/03/22 13:54:37;;;;;;;2.70;2.50;;;;;;;;;;6243329;22;20197;-50
2024/03/22 13:57:03;;;;;;;3.70;2.45;;;;;;;;;;6242988;22;20177;-48
2024/03/22 13:59:31;;;;;;;2.83;2.63;;;;;;;;;;6242980;22;20634;-51
2024/03/22 14:01:57;;;;;;;3.35;2.40;;;;;;;;;;6243271;22;20177;-49
2024/03/22 14:04:26;;;;;;;2.92;2.15;;;;;;;;;;6242849;22;20256;-48
2024/03/22 14:06:54;;;;;;;3.63;3.33;;;;;;;;;;6244701;22;20223;-49
2024/03/22 14:09:21;;;;;;;3.15;2.40;;;;;;;;;;6245633;23;20204;-53
2024/03/22 14:11:48;;;;;;;2.35;2.13;;;;;;;;;;6245161;22;20180;-52
2024/03/22 14:14:16;;;;;;;3.00;2.38;;;;;;;;;;6244916;22;20539;-50
2024/03/22 14:16:42;;;;;;;2.38;1.92;;;;;;;;;;6245114;22;20700;-52
2024/03/22 14:19:10;;;;;;;2.63;2.03;;;;;;;;;;6244691;22;20597;-49
2024/03/22 14:21:38;;;;;;;3.17;2.88;;;;;;;;;;6245049;22;20179;-50
2024/03/22 14:24:07;;;;;;;2.90;2.60;;;;;;;;;;6245025;22;20177;-48
2024/03/22 14:26:34;;;;;;;2.55;2.35;;;;;;;;;;6245619;23;20193;-54
2024/03/22 14:29:02;;;;;;;2.30;2.15;;;;;;;;;;6244937;22;20193;-49
2024/03/22 14:31:28;;;;;;;2.72;2.47;;;;;;;;;;6245362;22;20177;-50
2024/03/22 14:33:56;;;;;;;2.92;2.67;;;;;;;;;;6244146;22;20546;-53
2024/03/22 14:36:22;;;;;;;2.13;2.03;;;;;;;;;;6244559;22;20173;-53